Time;durP1;ratioP1;P1;durP2;ratioP2;P2;SDS_P1;SDS_P2;PMS_P1;PMS_P2;Temp;Humidity;BMP_temperature;BMP_pressure;BME280_temperature;BME280_humidity;BME280_pressure;Samples;Min_cycle;Max_cycle;Signal;HPM_P1;HPM_P2
2021/05/11 00:00:33;;;;;;;2.78;1.83;;;;;;;14.02;82.03;99832.78;5052332;28;20428;-72
2021/05/11 00:02:59;;;;;;;1.63;1.30;;;;;;;14.04;82.42;99828.09;5068883;28;20047;-72
2021/05/11 00:05:28;;;;;;;2.92;2.10;;;;;;;14.02;83.83;99824.81;5069112;28;20040;-72
2021/05/11 00:07:55;;;;;;;3.75;2.70;;;;;;;13.97;83.99;99828.03;5069021;28;20041;-72
2021/05/11 00:10:21;;;;;;;4.10;2.90;;;;;;;13.94;84.06;99848.84;5068357;28;20036;-72
2021/05/11 00:12:46;;;;;;;3.13;2.47;;;;;;;13.93;84.16;99837.41;5067116;28;20043;-72
2021/05/11 00:15:12;;;;;;;2.92;2.20;;;;;;;13.94;84.53;99840.88;5068834;28;20268;-72
2021/05/11 00:17:39;;;;;;;3.08;2.45;;;;;;;13.93;84.03;99847.22;5068997;28;20404;-72
2021/05/11 00:20:05;;;;;;;3.10;2.63;;;;;;;13.95;83.99;99850.50;5050269;28;20053;-72
2021/05/11 00:22:30;;;;;;;4.25;2.63;;;;;;;13.95;84.15;99839.88;5068678;28;20497;-72
2021/05/11 00:24:55;;;;;;;3.75;3.13;;;;;;;13.93;84.21;99828.59;5069608;28;20040;-72
2021/05/11 00:27:21;;;;;;;4.13;2.88;;;;;;;13.94;83.21;99806.31;5069177;28;20044;-73
2021/05/11 00:29:46;;;;;;;2.33;1.73;;;;;;;13.94;83.91;99801.00;5068332;28;20036;-72
2021/05/11 00:32:11;;;;;;;2.47;1.80;;;;;;;13.94;84.09;99793.03;5069316;28;20029;-73
2021/05/11 00:34:37;;;;;;;2.60;2.10;;;;;;;13.96;83.12;99788.34;5070231;28;20118;-73
2021/05/11 00:37:02;;;;;;;3.88;2.72;;;;;;;13.97;82.99;99784.69;5068780;28;20056;-73
2021/05/11 00:39:27;;;;;;;3.70;2.70;;;;;;;13.93;82.95;99783.44;5068390;28;20033;-72
2021/05/11 00:41:53;;;;;;;3.45;2.80;;;;;;;13.87;85.24;99789.50;5068637;28;20033;-72
2021/05/11 00:44:23;;;;;;;4.25;3.20;;;;;;;13.83;84.77;99790.91;5068452;28;20071;-72
2021/05/11 00:46:57;;;;;;;4.10;3.58;;;;;;;13.79;85.23;99782.47;5068754;28;20119;-72
2021/05/11 00:49:24;;;;;;;4.97;4.03;;;;;;;13.74;84.59;99771.59;5052756;28;20485;-72
2021/05/11 00:51:50;;;;;;;4.88;4.10;;;;;;;13.66;85.76;99769.06;5062966;28;20291;-72
2021/05/11 00:54:16;;;;;;;4.75;3.20;;;;;;;13.67;84.85;99773.38;5052588;28;20032;-72
2021/05/11 00:56:43;;;;;;;5.07;4.40;;;;;;;13.72;84.21;99785.06;5071756;28;20043;-72
2021/05/11 00:59:15;;;;;;;4.20;3.30;;;;;;;13.69;85.09;99779.34;5072877;28;20499;-73
2021/05/11 01:01:40;;;;;;;3.97;3.30;;;;;;;13.64;84.98;99779.91;5070584;28;20530;-72
2021/05/11 01:04:06;;;;;;;3.42;2.95;;;;;;;13.59;84.85;99772.50;5072016;28;20036;-74
2021/05/11 01:06:31;;;;;;;3.10;2.50;;;;;;;13.56;85.90;99772.03;5071718;28;20059;-72
2021/05/11 01:08:56;;;;;;;3.55;2.90;;;;;;;13.55;86.30;99791.66;5071546;28;20472;-72
2021/05/11 01:11:22;;;;;;;3.58;2.85;;;;;;;13.56;85.15;99799.44;5072545;28;20032;-72
2021/05/11 01:13:47;;;;;;;3.70;2.80;;;;;;;13.57;84.51;99795.78;5071913;28;20063;-72
2021/05/11 01:16:12;;;;;;;3.90;3.10;;;;;;;13.58;85.06;99788.63;5071484;28;20435;-72
2021/05/11 01:18:38;;;;;;;3.90;3.10;;;;;;;13.55;85.33;99791.66;5071337;28;20086;-72
2021/05/11 01:26:24;;;;;;;3.15;2.70;;;;;;;13.58;85.55;99781.47;5072030;28;20044;-72
2021/05/11 01:29:39;;;;;;;3.00;2.60;;;;;;;13.56;85.46;99770.22;5072604;28;20032;-72
2021/05/11 01:48:05;;;;;;;4.28;3.60;;;;;;;13.54;84.75;99784.72;5093162;28;20077;-72
2021/05/11 01:50:47;;;;;;;4.25;3.35;;;;;;;13.53;85.15;99775.09;5076046;28;20039;-72
2021/05/11 01:56:07;;;;;;;4.85;4.05;;;;;;;13.55;84.71;99760.59;5086896;28;20071;-72
2021/05/11 01:59:01;;;;;;;5.32;4.30;;;;;;;13.56;84.42;99753.44;5085796;28;20032;-72
2021/05/11 02:23:08;;;;;;;5.85;4.80;;;;;;;13.40;85.57;99701.44;5063747;28;20036;-72
2021/05/11 02:25:34;;;;;;;5.78;5.00;;;;;;;13.38;85.41;99698.94;5084101;28;20036;-72
2021/05/11 02:27:59;;;;;;;6.68;5.10;;;;;;;13.38;85.79;99698.94;5090674;28;20032;-72
2021/05/11 02:30:24;;;;;;;5.07;4.07;;;;;;;13.39;85.86;99702.44;5090491;28;20039;-72
2021/05/11 02:32:50;;;;;;;3.80;2.95;;;;;;;13.42;86.18;99710.03;5083764;28;20059;-72
2021/05/11 02:35:18;;;;;;;5.32;4.10;;;;;;;13.44;86.45;99723.91;5070512;28;20090;-72
2021/05/11 02:37:44;;;;;;;3.90;3.13;;;;;;;13.49;85.81;99733.97;5062952;28;20037;-72
2021/05/11 02:40:11;;;;;;;6.30;5.35;;;;;;;13.47;85.50;99747.47;5066188;28;20040;-72
2021/05/11 02:42:38;;;;;;;5.47;4.65;;;;;;;13.47;85.76;99752.78;5071232;28;20124;-72
2021/05/11 02:45:12;;;;;;;4.97;3.80;;;;;;;13.47;85.18;99744.00;5090744;28;20036;-72
2021/05/11 02:47:51;;;;;;;5.03;3.90;;;;;;;13.48;85.10;99732.34;5091100;28;20560;-72
2021/05/11 02:50:22;;;;;;;4.43;3.20;;;;;;;13.53;85.19;99737.91;5070332;28;20035;-72
2021/05/11 02:52:48;;;;;;;4.20;3.80;;;;;;;13.52;84.91;99744.25;5052516;28;20050;-72
2021/05/11 02:55:14;;;;;;;6.95;5.70;;;;;;;13.48;85.77;99742.97;5070578;28;20041;-72
2021/05/11 02:57:40;;;;;;;6.93;5.35;;;;;;;13.47;85.33;99730.72;5085664;28;20045;-72
2021/05/11 03:00:06;;;;;;;4.32;3.63;;;;;;;13.54;85.54;99734.25;5036434;28;20044;-73
2021/05/11 03:02:32;;;;;;;6.03;5.03;;;;;;;13.55;85.46;99734.03;5089512;28;20040;-72
2021/05/11 03:04:57;;;;;;;6.70;5.70;;;;;;;13.53;85.21;99729.94;5090274;28;20024;-72
2021/05/11 03:07:22;;;;;;;5.82;4.90;;;;;;;13.53;85.36;99735.25;5080680;28;20036;-73
2021/05/11 03:09:48;;;;;;;5.75;4.75;;;;;;;13.51;84.83;99740.72;5075495;28;20039;-72
2021/05/11 03:12:13;;;;;;;7.47;6.18;;;;;;;13.49;84.99;99737.47;5051048;28;20071;-72
2021/05/11 03:14:39;;;;;;;7.22;5.35;;;;;;;13.52;85.06;99734.44;5069735;28;20529;-72
2021/05/11 03:17:04;;;;;;;6.43;4.97;;;;;;;13.60;84.38;99733.47;5060984;28;20036;-72
2021/05/11 03:19:29;;;;;;;6.28;5.10;;;;;;;13.59;85.19;99723.88;5042788;28;20054;-72
2021/05/11 03:21:54;;;;;;;5.97;4.85;;;;;;;13.60;85.27;99726.31;5084940;28;20059;-72
2021/05/11 03:24:20;;;;;;;9.00;6.85;;;;;;;13.61;85.42;99727.16;5071272;28;20137;-72
2021/05/11 03:26:45;;;;;;;8.52;6.28;;;;;;;13.58;85.64;99722.22;5089190;28;20500;-72
2021/05/11 03:29:11;;;;;;;7.07;5.43;;;;;;;13.53;86.20;99714.81;5080081;28;20063;-72
2021/05/11 03:31:36;;;;;;;6.97;5.30;;;;;;;13.52;85.85;99715.84;5069199;28;20037;-73
2021/05/11 03:34:02;;;;;;;6.38;4.75;;;;;;;13.50;85.89;99715.19;5069496;28;20029;-72
2021/05/11 03:36:27;;;;;;;6.53;4.90;;;;;;;13.49;85.43;99724.19;5068533;28;20436;-72
2021/05/11 03:38:55;;;;;;;7.55;5.45;;;;;;;13.51;85.23;99723.97;5069105;28;20509;-72
2021/05/11 03:41:26;;;;;;;6.25;4.53;;;;;;;13.50;85.47;99722.34;5076231;28;20036;-72
2021/05/11 03:44:00;;;;;;;8.07;5.68;;;;;;;13.49;86.09;99718.03;5086748;28;20396;-72
2021/05/11 03:46:25;;;;;;;6.88;4.80;;;;;;;13.50;85.11;99722.34;5083509;28;20491;-72
2021/05/11 03:48:51;;;;;;;11.60;7.80;;;;;;;13.46;85.57;99718.44;5074301;28;20036;-72
2021/05/11 03:51:17;;;;;;;8.43;5.78;;;;;;;13.45;86.37;99719.44;5071214;28;20412;-72
2021/05/11 03:53:43;;;;;;;11.93;7.65;;;;;;;13.44;86.16;99717.78;5081288;28;20036;-72
2021/05/11 03:56:08;;;;;;;12.50;8.52;;;;;;;13.41;86.16;99721.66;5051086;28;20045;-73
2021/05/11 03:58:33;;;;;;;13.45;9.35;;;;;;;13.43;85.84;99718.81;5054224;28;20039;-72
2021/05/11 04:00:59;;;;;;;8.48;5.50;;;;;;;13.44;85.36;99700.00;5077999;28;20040;-72
2021/05/11 04:03:25;;;;;;;13.95;9.52;;;;;;;13.45;85.45;99690.25;5089248;28;20020;-72
2021/05/11 04:05:51;;;;;;;11.18;7.88;;;;;;;13.44;86.10;99683.25;5089580;28;20028;-72
2021/05/11 04:08:31;;;;;;;12.10;8.57;;;;;;;13.44;85.10;99670.00;5070169;28;20032;-72
2021/05/11 04:11:01;;;;;;;18.30;10.95;;;;;;;13.37;85.39;99657.50;5074403;28;20032;-72
2021/05/11 04:18:36;;;;;;;19.95;11.40;;;;;;;13.22;86.63;99648.72;5082330;28;20033;-72
2021/05/11 04:21:01;;;;;;;11.77;8.32;;;;;;;13.26;87.32;99659.81;5072802;28;20539;-72
2021/05/11 04:23:26;;;;;;;11.48;9.02;;;;;;;13.23;87.58;99678.75;5069923;28;20035;-72
2021/05/11 04:25:52;;;;;;;13.93;10.48;;;;;;;13.22;86.60;99691.22;5088616;28;20051;-71
2021/05/11 04:28:17;;;;;;;17.67;8.75;;;;;;;13.26;86.16;99689.81;5083224;28;20036;-72
2021/05/11 04:30:42;;;;;;;6.68;4.97;;;;;;;13.28;86.24;99690.50;5067745;28;20056;-72
2021/05/11 04:33:07;;;;;;;5.50;3.42;;;;;;;13.29;86.32;99686.81;5073254;28;20032;-72
2021/05/11 04:35:33;;;;;;;9.13;7.07;;;;;;;13.33;86.17;99688.09;5086829;28;20300;-72
2021/05/11 04:37:58;;;;;;;6.32;4.97;;;;;;;13.41;86.77;99678.34;5094444;28;20055;-72
2021/05/11 04:40:24;;;;;;;5.30;4.13;;;;;;;13.44;85.84;99678.78;5095240;28;20035;-73
2021/05/11 04:42:49;;;;;;;7.32;5.35;;;;;;;13.47;85.91;99673.09;5062410;28;20509;-72
2021/05/11 04:45:24;;;;;;;7.45;5.57;;;;;;;13.57;85.89;99684.22;5095147;28;20031;-72
2021/05/11 04:47:52;;;;;;;10.07;7.55;;;;;;;13.62;85.83;99683.63;5090743;28;20040;-72
2021/05/11 04:50:22;;;;;;;10.00;7.70;;;;;;;13.63;85.57;99689.75;5073925;28;20032;-71
2021/05/11 04:52:48;;;;;;;6.25;4.63;;;;;;;13.66;85.18;99697.34;5072957;28;20485;-72
2021/05/11 04:55:15;;;;;;;7.13;6.05;;;;;;;13.64;85.68;99691.41;5066642;28;20036;-72
2021/05/11 04:57:41;;;;;;;8.88;6.78;;;;;;;13.59;85.41;99692.81;5054689;28;20040;-72
2021/05/11 05:00:09;;;;;;;9.38;7.13;;;;;;;13.57;86.38;99705.47;5066410;28;20033;-72
2021/05/11 05:02:36;;;;;;;7.80;5.70;;;;;;;13.58;86.00;99703.63;5074200;28;20138;-72
2021/05/11 05:05:02;;;;;;;8.90;6.20;;;;;;;13.59;85.61;99692.81;5062770;28;20503;-72
2021/05/11 05:07:27;;;;;;;7.22;5.60;;;;;;;13.60;86.09;99685.66;5085461;28;20199;-72
2021/05/11 05:09:53;;;;;;;9.27;6.68;;;;;;;13.64;86.14;99686.09;5091873;28;20044;-72
2021/05/11 05:12:18;;;;;;;12.75;9.80;;;;;;;13.58;86.12;99698.31;5091403;28;20040;-72
2021/05/11 05:14:44;;;;;;;8.35;6.32;;;;;;;13.68;85.74;99720.06;5092197;28;20508;-72
2021/05/11 05:17:09;;;;;;;10.20;7.38;;;;;;;13.71;86.00;99724.19;5091911;28;20032;-72
2021/05/11 05:19:34;;;;;;;11.48;8.02;;;;;;;13.82;84.93;99734.25;5094121;28;20042;-72
2021/05/11 05:22:01;;;;;;;10.48;7.97;;;;;;;13.82;85.04;99734.25;5087279;28;20072;-72
2021/05/11 05:24:41;;;;;;;8.25;6.22;;;;;;;13.80;86.24;99734.47;5092021;28;20028;-72
2021/05/11 05:29:37;;;;;;;8.38;6.60;;;;;;;13.85;84.40;99722.41;5086145;28;20044;-72
2021/05/11 05:32:03;;;;;;;5.93;4.93;;;;;;;13.80;84.56;99705.25;5066249;28;20407;-73
2021/05/11 05:34:28;;;;;;;5.50;4.50;;;;;;;13.80;84.31;99691.13;5091676;28;20034;-72
2021/05/11 05:36:54;;;;;;;11.30;8.82;;;;;;;13.74;84.74;99674.13;5092089;28;20557;-72
2021/05/11 05:39:21;;;;;;;9.32;7.63;;;;;;;13.64;86.08;99680.78;5089352;28;20488;-72
2021/05/11 05:41:46;;;;;;;9.52;7.53;;;;;;;13.58;85.07;99667.25;5091604;28;20519;-72
2021/05/11 05:44:12;;;;;;;10.00;7.90;;;;;;;13.61;84.60;99666.06;5060331;28;20051;-72
2021/05/11 05:46:37;;;;;;;7.05;5.47;;;;;;;13.55;85.70;99667.63;5091753;28;20224;-72
2021/05/11 05:49:03;;;;;;;5.05;4.10;;;;;;;13.60;85.90;99667.06;5091709;28;20401;-73
2021/05/11 05:51:29;;;;;;;6.13;4.75;;;;;;;13.66;85.61;99671.63;5087106;28;20032;-72
2021/05/11 05:53:54;;;;;;;6.63;5.30;;;;;;;13.65;84.80;99669.97;5090772;28;20615;-73
2021/05/11 05:56:19;;;;;;;5.10;4.00;;;;;;;13.62;85.49;99691.59;5091132;28;20133;-73
2021/05/11 05:58:45;;;;;;;6.40;5.15;;;;;;;13.62;85.02;99694.25;5088926;28;20032;-73
2021/05/11 06:01:10;;;;;;;6.35;5.10;;;;;;;13.63;85.47;99690.56;5081364;28;20058;-73
2021/05/11 06:06:04;;;;;;;5.32;4.60;;;;;;;13.68;84.67;99693.50;5091448;28;20047;-73
2021/05/11 06:08:31;;;;;;;7.70;5.95;;;;;;;13.75;84.56;99701.50;5088634;28;20040;-73
2021/05/11 06:11:02;;;;;;;5.43;4.53;;;;;;;13.76;84.44;99698.66;5091761;28;20046;-72
2021/05/11 06:13:38;;;;;;;;;;;;;;;13.77;85.22;99699.47;5090219;28;20050;-73
2021/05/11 06:18:48;;;;;;;4.55;3.70;;;;;;;13.87;84.60;99718.59;5085158;28;20284;-73
2021/05/11 06:21:13;;;;;;;5.75;4.90;;;;;;;13.91;84.31;99735.75;5091325;28;20508;-73
2021/05/11 06:23:39;;;;;;;4.47;3.75;;;;;;;13.91;84.61;99751.72;5077012;28;20405;-73
2021/05/11 06:26:04;;;;;;;3.92;3.25;;;;;;;13.95;84.75;99744.19;5084855;28;20040;-73
2021/05/11 06:28:31;;;;;;;3.97;3.28;;;;;;;13.99;84.82;99743.63;5088675;28;20047;-73
2021/05/11 06:30:56;;;;;;;4.90;3.72;;;;;;;14.02;84.14;99740.56;5090899;28;20052;-73
2021/05/11 06:33:21;;;;;;;5.05;4.40;;;;;;;14.00;84.30;99741.78;5072818;28;20063;-73
2021/05/11 06:35:49;;;;;;;8.40;6.68;;;;;;;13.98;84.20;99733.16;5091046;28;20503;-73
2021/05/11 06:38:15;;;;;;;4.90;4.00;;;;;;;14.02;84.16;99711.31;5079660;28;20672;-73
2021/05/11 06:40:42;;;;;;;4.25;3.38;;;;;;;14.07;83.99;99720.56;5085575;28;20166;-73
2021/05/11 06:43:07;;;;;;;6.45;5.22;;;;;;;13.98;84.26;99711.91;5092117;28;20648;-73
2021/05/11 06:48:25;;;;;;;6.72;6.03;;;;;;;13.83;84.73;99697.91;5087937;28;20390;-73
2021/05/11 06:53:35;;;;;;;4.75;3.88;;;;;;;13.88;85.17;99701.63;5080951;28;20468;-73
2021/05/11 06:56:01;;;;;;;5.88;4.97;;;;;;;13.92;85.73;99686.94;5096318;28;20483;-73
2021/05/11 06:58:26;;;;;;;5.53;4.93;;;;;;;13.93;84.84;99680.59;5087334;28;20028;-73
2021/05/11 07:00:52;;;;;;;3.42;2.90;;;;;;;13.97;84.67;99678.38;5067145;28;20032;-74
2021/05/11 07:03:18;;;;;;;5.47;4.43;;;;;;;13.94;86.38;99687.56;5089968;28;20033;-73
2021/05/11 07:05:45;;;;;;;5.85;5.15;;;;;;;13.81;85.65;99680.31;5088069;28;20032;-73
2021/05/11 07:10:37;;;;;;;5.90;5.07;;;;;;;13.77;85.64;99654.31;5083496;28;20062;-73
2021/05/11 07:13:10;;;;;;;5.82;3.90;;;;;;;13.74;86.01;99655.53;5078139;28;20506;-73
2021/05/11 07:15:36;;;;;;;5.35;4.22;;;;;;;13.77;85.48;99668.41;5075223;28;20123;-73
2021/05/11 07:18:06;;;;;;;5.20;4.57;;;;;;;13.86;85.52;99665.63;5081205;28;20032;-73
2021/05/11 07:20:32;;;;;;;4.70;4.10;;;;;;;13.86;86.05;99663.78;5089708;28;20123;-73
2021/05/11 07:22:57;;;;;;;7.25;5.35;;;;;;;13.96;85.65;99663.44;5086142;28;20135;-73
2021/05/11 07:25:25;;;;;;;6.03;5.15;;;;;;;14.01;85.75;99647.72;5089555;28;20032;-73
2021/05/11 07:30:45;;;;;;;7.93;6.57;;;;;;;13.99;85.10;99634.63;4988072;28;20046;-73
2021/05/11 07:33:10;;;;;;;7.32;5.93;;;;;;;13.93;85.30;99626.63;5085803;28;20374;-73
2021/05/11 07:35:40;;;;;;;7.03;6.00;;;;;;;13.98;85.47;99614.38;5081974;28;20047;-72
2021/05/11 07:38:06;;;;;;;5.53;4.75;;;;;;;14.01;87.06;99615.81;5089748;28;20061;-73
2021/05/11 07:40:31;;;;;;;10.57;7.25;;;;;;;14.13;84.62;99624.06;5087796;28;20032;-72
2021/05/11 07:42:56;;;;;;;8.07;6.43;;;;;;;14.16;84.11;99629.81;5087528;28;20050;-72
2021/05/11 07:45:32;;;;;;;6.93;6.10;;;;;;;14.19;83.81;99636.56;5077352;28;20064;-73
2021/05/11 08:17:46;;;;;;;8.13;6.10;;;;;;;14.44;83.61;99600.47;5081620;28;20155;-73
2021/05/11 08:22:52;;;;;;;7.38;6.03;;;;;;;14.62;84.39;99626.53;5089438;28;20036;-73
2021/05/11 08:28:08;;;;;;;6.50;5.75;;;;;;;14.81;83.45;99621.47;5077316;28;20088;-73
2021/05/11 08:30:34;;;;;;;8.70;6.35;;;;;;;14.81;82.84;99614.31;5058588;28;20595;-73
2021/05/11 08:32:59;;;;;;;7.53;6.20;;;;;;;14.77;82.87;99609.59;5063331;28;20051;-73
2021/05/11 08:35:24;;;;;;;10.40;6.20;;;;;;;14.78;82.92;99600.59;5071599;28;20496;-73
2021/05/11 08:37:50;;;;;;;6.07;4.93;;;;;;;14.88;83.80;99601.00;5069588;28;20123;-72
2021/05/11 08:40:15;;;;;;;6.68;5.53;;;;;;;15.06;81.71;99590.59;5080224;28;20024;-73
2021/05/11 08:42:41;;;;;;;6.05;4.80;;;;;;;15.29;80.56;99586.69;5079947;28;20269;-73
2021/05/11 08:45:08;;;;;;;5.68;3.70;;;;;;;15.28;79.32;99587.72;5070317;28;20090;-73
2021/05/11 08:47:48;;;;;;;4.28;3.80;;;;;;;15.39;80.49;99597.75;5083775;28;20035;-73
2021/05/11 08:50:34;;;;;;;4.30;3.72;;;;;;;15.57;80.31;99612.31;5088854;28;20052;-73
2021/05/11 09:14:56;;;;;;;3.00;2.70;;;;;;;15.90;76.74;99637.09;5067792;28;20140;-73
2021/05/11 09:25:26;;;;;;;2.58;2.30;;;;;;;16.23;75.21;99664.69;5081617;28;20520;-73
2021/05/11 09:30:41;;;;;;;3.55;3.20;;;;;;;16.27;75.17;99652.56;5073546;28;20074;-73
2021/05/11 09:33:17;;;;;;;4.15;2.60;;;;;;;16.42;74.89;99660.31;5074873;28;20043;-72
2021/05/11 09:51:13;;;;;;;2.50;2.22;;;;;;;16.77;73.27;99642.09;5085489;28;20077;-73
2021/05/11 09:56:27;;;;;;;2.30;1.90;;;;;;;17.09;72.25;99653.66;5071790;28;20044;-72
2021/05/11 10:48:36;;;;;;;2.58;2.15;;;;;;;17.07;70.79;99644.22;5061302;28;20527;-72
2021/05/11 10:51:15;;;;;;;2.08;1.75;;;;;;;17.22;71.48;99633.22;5091501;28;20047;-72
2021/05/11 10:53:47;;;;;;;2.45;2.10;;;;;;;17.42;71.32;99644.53;5091382;28;20024;-72
2021/05/11 10:56:30;;;;;;;2.97;2.22;;;;;;;17.58;70.66;99637.84;5090098;28;20527;-72
2021/05/11 11:02:13;;;;;;;2.80;2.05;;;;;;;17.74;68.73;99633.78;5091270;28;20082;-72
2021/05/11 11:04:46;;;;;;;2.40;1.90;;;;;;;17.61;68.86;99640.91;5091033;28;20480;-72
2021/05/11 11:07:14;;;;;;;3.03;2.38;;;;;;;17.62;69.34;99645.22;5088804;28;20039;-72
2021/05/11 11:09:53;;;;;;;3.33;2.30;;;;;;;17.61;68.57;99651.59;5090615;28;20020;-72
2021/05/11 11:12:21;;;;;;;2.67;2.20;;;;;;;17.59;67.72;99660.84;5090774;28;20039;-72
2021/05/11 11:14:46;;;;;;;2.20;1.80;;;;;;;17.58;69.22;99673.41;5072932;28;20028;-72
2021/05/11 11:17:13;;;;;;;2.63;1.90;;;;;;;17.60;69.40;99674.00;5090611;28;20047;-72
2021/05/11 11:19:39;;;;;;;4.38;2.47;;;;;;;17.36;69.11;99667.63;5090921;28;20523;-72
2021/05/11 11:24:55;;;;;;;3.90;2.20;;;;;;;17.04;71.42;99668.66;5089012;28;20038;-73
2021/05/11 11:27:32;;;;;;;2.90;1.60;;;;;;;16.91;72.13;99664.22;5087110;28;20032;-73
2021/05/11 11:30:09;;;;;;;3.00;1.90;;;;;;;17.02;71.34;99660.88;5054906;28;20044;-74
2021/05/11 11:32:35;;;;;;;2.10;1.60;;;;;;;16.96;71.90;99667.06;5082793;28;20042;-73
2021/05/11 11:35:02;;;;;;;2.35;1.92;;;;;;;16.82;71.13;99681.53;5089223;28;20036;-73
2021/05/11 11:37:29;;;;;;;1.80;1.50;;;;;;;16.94;71.30;99679.81;5083906;28;20040;-73
2021/05/11 11:39:56;;;;;;;1.80;1.40;;;;;;;17.07;72.05;99677.06;5088206;28;20028;-73
2021/05/11 11:42:24;;;;;;;2.88;1.67;;;;;;;17.11;71.24;99672.94;5053512;28;20032;-73
2021/05/11 11:45:01;;;;;;;2.85;2.20;;;;;;;17.36;70.25;99672.97;5071703;28;20054;-73
2021/05/11 11:47:28;;;;;;;2.78;2.35;;;;;;;17.25;69.32;99678.19;5074016;28;20054;-73
2021/05/11 11:50:01;;;;;;;2.17;1.83;;;;;;;17.32;69.99;99677.09;5068411;28;20127;-73
2021/05/11 11:52:37;;;;;;;2.90;2.30;;;;;;;17.26;69.13;99675.31;5068161;28;20370;-73
2021/05/11 11:55:20;;;;;;;3.17;1.85;;;;;;;17.37;69.36;99657.75;5076644;28;20039;-73
2021/05/11 11:57:55;;;;;;;2.47;1.90;;;;;;;17.57;69.33;99665.63;5085408;28;20040;-73
2021/05/11 12:00:25;;;;;;;2.83;2.00;;;;;;;17.91;68.98;99664.31;5079969;28;20040;-73
2021/05/11 12:02:56;;;;;;;2.65;2.10;;;;;;;18.00;66.79;99675.53;5075921;28;20032;-73
2021/05/11 12:05:23;;;;;;;;;;;;;;;17.81;67.12;99682.72;5075620;28;20547;-74
2021/05/11 12:08:03;;;;;;;2.47;2.00;;;;;;;17.96;68.12;99696.56;5091714;28;20437;-74
2021/05/11 12:10:29;;;;;;;2.35;1.98;;;;;;;17.94;68.32;99700.50;5069854;28;20485;-74
2021/05/11 12:12:56;;;;;;;3.15;2.00;;;;;;;17.78;69.90;99705.34;5065487;28;20035;-74
2021/05/11 12:15:22;;;;;;;2.45;2.00;;;;;;;17.71;69.39;99714.44;5068763;28;20060;-74
2021/05/11 12:17:58;;;;;;;3.90;2.03;;;;;;;17.55;69.13;99718.47;5083486;28;20451;-74
2021/05/11 12:20:27;;;;;;;3.58;2.50;;;;;;;17.27;69.66;99732.22;5069900;28;20036;-74
2021/05/11 12:23:21;;;;;;;2.22;1.90;;;;;;;17.00;70.97;99747.59;5070960;28;20572;-74
2021/05/11 12:25:59;;;;;;;2.72;2.30;;;;;;;16.69;70.55;99751.81;5039448;28;20029;-74
2021/05/11 12:28:33;;;;;;;2.65;2.17;;;;;;;16.60;72.02;99759.22;5084890;28;20044;-74
2021/05/11 12:30:59;;;;;;;2.67;2.22;;;;;;;16.49;71.79;99767.84;5081860;28;20479;-74
2021/05/11 12:33:36;;;;;;;2.65;1.73;;;;;;;16.40;72.58;99759.28;5086183;28;20136;-74
2021/05/11 12:36:24;;;;;;;3.13;2.13;;;;;;;16.23;72.65;99761.56;5068870;28;20093;-75
2021/05/11 12:38:51;;;;;;;3.22;1.92;;;;;;;15.98;71.76;99747.22;5087441;28;20058;-74
2021/05/11 12:41:32;;;;;;;2.08;1.48;;;;;;;15.89;72.56;99743.94;5079269;28;20032;-74
2021/05/11 12:44:01;;;;;;;2.65;1.65;;;;;;;15.93;72.48;99748.66;5061493;28;20031;-73
2021/05/11 12:46:29;;;;;;;3.30;1.30;;;;;;;15.77;73.14;99742.91;5087656;28;20416;-73
2021/05/11 12:48:59;;;;;;;2.17;1.50;;;;;;;15.79;73.11;99743.53;5090559;28;20111;-73
2021/05/11 12:51:41;;;;;;;2.20;1.63;;;;;;;15.69;73.90;99741.25;5093268;28;20032;-73
2021/05/11 12:54:50;;;;;;;3.17;1.40;;;;;;;15.80;73.00;99742.50;5075183;28;20396;-74
2021/05/11 12:57:38;;;;;;;2.13;1.40;;;;;;;15.61;73.52;99734.28;5074911;28;20051;-73
2021/05/11 13:00:11;;;;;;;1.55;1.13;;;;;;;15.65;73.41;99729.34;5091978;28;20039;-74
2021/05/11 13:26:42;;;;;;;1.73;1.08;;;;;;;15.40;74.46;99689.97;5091715;28;20515;-74
2021/05/11 13:29:17;;;;;;;1.80;0.88;;;;;;;15.27;76.54;99681.97;5082792;28;20123;-75
2021/05/11 13:31:50;;;;;;;2.03;1.10;;;;;;;15.16;75.84;99670.09;5056430;28;20497;-74
2021/05/11 13:34:18;;;;;;;1.52;1.05;;;;;;;15.03;77.41;99664.72;5074530;28;20056;-74
2021/05/11 13:36:44;;;;;;;2.05;1.40;;;;;;;15.06;77.34;99657.16;5091074;28;20127;-74
2021/05/11 13:39:11;;;;;;;1.88;1.30;;;;;;;14.98;77.25;99657.34;5074286;28;20111;-73
2021/05/11 13:41:36;;;;;;;2.90;1.48;;;;;;;15.02;76.81;99647.94;5074782;28;20081;-74
2021/05/11 13:44:03;;;;;;;1.73;1.30;;;;;;;14.83;78.32;99649.53;5057573;28;20033;-74
2021/05/11 13:46:28;;;;;;;2.85;1.98;;;;;;;14.77;77.62;99641.53;5079131;28;20100;-74
2021/05/11 13:48:53;;;;;;;2.08;1.35;;;;;;;14.74;78.03;99642.75;5088512;28;20116;-74
2021/05/11 13:51:19;;;;;;;1.55;1.10;;;;;;;14.77;77.91;99649.50;5073505;28;20412;-74
2021/05/11 13:53:49;;;;;;;2.13;1.38;;;;;;;14.85;79.52;99659.97;5088423;28;20032;-74
2021/05/11 13:56:24;;;;;;;2.30;1.70;;;;;;;14.80;81.96;99670.38;5073151;28;20495;-74
2021/05/11 14:04:03;;;;;;;2.10;1.60;;;;;;;15.06;79.86;99701.59;5071616;28;20137;-73
2021/05/11 14:06:29;;;;;;;2.70;1.70;;;;;;;14.99;82.31;99714.06;5072834;28;20385;-73
2021/05/11 14:08:54;;;;;;;2.58;1.83;;;;;;;15.00;80.76;99707.72;5090738;28;20071;-73
2021/05/11 14:11:21;;;;;;;2.45;1.65;;;;;;;15.03;80.76;99721.44;5085929;28;20401;-74
2021/05/11 14:13:46;;;;;;;2.58;1.67;;;;;;;15.12;80.02;99729.28;5090930;28;20412;-74
2021/05/11 14:16:11;;;;;;;2.33;1.70;;;;;;;15.05;81.86;99726.56;5089285;28;20024;-74
2021/05/11 14:18:37;;;;;;;1.60;1.20;;;;;;;15.02;81.09;99729.66;5072254;28;20130;-74
2021/05/11 14:21:02;;;;;;;2.80;1.80;;;;;;;14.91;81.78;99719.56;5091168;28;20485;-74
2021/05/11 14:23:28;;;;;;;2.15;1.40;;;;;;;14.92;81.88;99731.84;5086769;28;20032;-75
2021/05/11 14:25:53;;;;;;;1.48;1.08;;;;;;;15.01;81.12;99728.00;5091426;28;20034;-75
2021/05/11 14:28:18;;;;;;;2.15;1.25;;;;;;;14.99;82.58;99730.88;5090366;28;20055;-75
2021/05/11 14:30:44;;;;;;;1.83;1.20;;;;;;;14.97;84.35;99735.56;5091506;28;20039;-75
2021/05/11 14:33:09;;;;;;;1.33;1.00;;;;;;;14.98;83.12;99734.53;5081373;28;20040;-75
2021/05/11 14:35:35;;;;;;;0.73;0.70;;;;;;;15.00;84.27;99729.84;5063288;28;20032;-74
2021/05/11 14:38:00;;;;;;;1.35;0.80;;;;;;;15.04;85.92;99732.91;5071759;28;20433;-75
2021/05/11 14:40:26;;;;;;;1.05;0.82;;;;;;;15.05;83.67;99732.72;5089775;28;20040;-75
2021/05/11 14:42:53;;;;;;;0.90;0.70;;;;;;;15.13;82.09;99734.38;5084461;28;20392;-75
2021/05/11 14:45:19;;;;;;;2.22;1.33;;;;;;;15.12;80.99;99739.91;5087207;28;20480;-75
2021/05/11 14:47:45;;;;;;;1.67;1.10;;;;;;;15.05;82.33;99740.72;5084066;28;20131;-75
2021/05/11 14:50:19;;;;;;;2.50;1.38;;;;;;;14.97;86.02;99743.56;5091423;28;20054;-75
2021/05/11 14:52:45;;;;;;;2.28;1.70;;;;;;;14.98;83.33;99736.38;5073292;28;20288;-74
2021/05/11 14:55:13;;;;;;;1.60;0.93;;;;;;;14.91;85.70;99739.03;5079999;28;20467;-74
2021/05/11 14:57:40;;;;;;;1.95;1.02;;;;;;;14.94;85.79;99745.78;5056620;28;20109;-74
2021/05/11 15:00:06;;;;;;;2.92;1.10;;;;;;;14.96;84.29;99749.88;5083626;28;20031;-74
2021/05/11 15:02:31;;;;;;;2.03;1.30;;;;;;;14.95;86.35;99750.91;5071747;28;20116;-74
2021/05/11 15:04:57;;;;;;;2.88;1.60;;;;;;;14.93;84.95;99746.81;5090062;28;20338;-74
2021/05/11 15:07:22;;;;;;;1.38;1.05;;;;;;;14.99;84.06;99752.19;5088529;28;20195;-74
2021/05/11 15:09:47;;;;;;;1.90;1.50;;;;;;;15.06;82.71;99758.34;5085775;28;20041;-75
2021/05/11 15:12:13;;;;;;;2.95;1.40;;;;;;;14.95;85.37;99756.25;5086595;28;20607;-74
2021/05/11 15:14:38;;;;;;;1.67;1.25;;;;;;;14.90;85.42;99756.03;5089981;28;20107;-74
2021/05/11 15:19:53;;;;;;;1.58;1.10;;;;;;;14.92;86.82;99753.16;5080014;28;20043;-74
2021/05/11 15:22:20;;;;;;;1.92;1.00;;;;;;;14.94;87.34;99746.59;5089274;28;20028;-73
2021/05/11 15:24:47;;;;;;;2.28;1.73;;;;;;;14.99;84.26;99751.31;5071544;28;20028;-74
2021/05/11 15:27:12;;;;;;;1.58;1.10;;;;;;;15.00;84.46;99756.47;5089382;28;20454;-74
2021/05/11 15:29:38;;;;;;;2.85;1.65;;;;;;;15.08;83.09;99750.94;5070873;28;20299;-74
2021/05/11 15:32:35;;;;;;;3.33;1.50;;;;;;;15.00;84.96;99764.44;5088702;28;20036;-73
2021/05/11 15:35:00;;;;;;;3.30;2.40;;;;;;;14.88;85.55;99760.72;5070846;28;20035;-75
2021/05/11 15:37:25;;;;;;;2.45;1.90;;;;;;;14.81;84.77;99762.53;5071480;28;20036;-75
2021/05/11 15:39:51;;;;;;;2.70;1.75;;;;;;;14.77;86.11;99756.78;5070826;28;20067;-74
2021/05/11 15:42:16;;;;;;;2.97;1.70;;;;;;;14.71;85.48;99756.75;5088435;28;20032;-74